createdAt,value
2017-09-26T00:01:57.943Z,14.56
2017-09-26T00:04:25.346Z,14.59
2017-09-26T00:06:52.742Z,14.46
2017-09-26T00:09:20.143Z,14.56
2017-09-26T00:11:47.545Z,14.48
2017-09-26T00:14:14.938Z,14.42
2017-09-26T00:16:42.343Z,14.35
2017-09-26T00:19:09.744Z,14.28
2017-09-26T00:21:37.152Z,14.37
2017-09-26T00:24:04.554Z,14.31
2017-09-26T00:26:31.964Z,14.16
2017-09-26T00:28:59.383Z,14.16
2017-09-26T00:31:26.800Z,14.27
2017-09-26T00:33:54.204Z,14.39
2017-09-26T00:36:21.611Z,14.46
2017-09-26T00:38:50.835Z,14.42
2017-09-26T00:41:18.240Z,14.25
2017-09-26T00:43:45.635Z,14.31
2017-09-26T00:46:13.034Z,14.43
2017-09-26T00:48:40.441Z,14.30
2017-09-26T00:51:07.946Z,14.28
2017-09-26T00:53:35.337Z,14.34
2017-09-26T00:56:02.735Z,14.37
2017-09-26T00:58:30.135Z,14.57
2017-09-26T01:00:57.528Z,14.63
2017-09-26T01:03:24.935Z,14.93
2017-09-26T01:05:53.093Z,15.11
2017-09-26T01:08:20.495Z,15.26
2017-09-26T01:10:47.893Z,15.14
2017-09-26T01:13:15.294Z,14.98
2017-09-26T01:15:42.686Z,14.79
2017-09-26T01:18:10.086Z,14.76
2017-09-26T01:20:37.489Z,14.86
2017-09-26T01:23:04.899Z,14.61
2017-09-26T01:25:32.300Z,14.50
2017-09-26T01:27:59.701Z,14.71
2017-09-26T01:30:27.096Z,14.75
2017-09-26T01:32:54.603Z,14.82
2017-09-26T01:35:21.990Z,14.78
2017-09-26T01:37:49.403Z,14.80
2017-09-26T01:40:16.796Z,14.81
2017-09-26T01:42:44.199Z,14.85
2017-09-26T01:45:11.595Z,14.99
2017-09-26T01:47:39.059Z,15.01
2017-09-26T01:50:06.452Z,15.05
2017-09-26T01:52:33.850Z,15.06
2017-09-26T01:55:01.243Z,15.10
2017-09-26T01:57:30.967Z,14.95
2017-09-26T01:59:59.262Z,14.76
2017-09-26T02:02:26.755Z,14.62
2017-09-26T02:04:54.138Z,14.59
2017-09-26T02:07:21.535Z,14.51
2017-09-26T02:09:48.933Z,14.64
2017-09-26T02:12:16.328Z,14.62
2017-09-26T02:14:43.725Z,14.80
2017-09-26T02:17:11.124Z,14.86
2017-09-26T02:19:38.545Z,14.96
2017-09-26T02:22:05.938Z,15.17
2017-09-26T02:24:33.353Z,15.27
2017-09-26T02:27:00.742Z,15.33
2017-09-26T02:29:28.155Z,15.37
2017-09-26T02:31:55.542Z,15.29
2017-09-26T02:34:22.952Z,15.17
2017-09-26T02:36:50.342Z,15.20
2017-09-26T02:39:17.782Z,15.41
2017-09-26T02:41:45.171Z,15.32
2017-09-26T02:44:12.570Z,15.24
2017-09-26T02:46:39.969Z,15.23
2017-09-26T02:49:07.386Z,15.05
2017-09-26T02:51:34.770Z,15.16
2017-09-26T02:54:02.162Z,15.10
2017-09-26T02:56:29.566Z,15.05
2017-09-26T02:58:56.959Z,15.05
2017-09-26T03:01:24.362Z,15.06
2017-09-26T03:03:51.763Z,15.28
2017-09-26T03:06:19.167Z,15.39
2017-09-26T03:08:46.563Z,15.30
2017-09-26T03:11:13.959Z,15.06
2017-09-26T03:13:41.355Z,15.26
2017-09-26T03:16:08.754Z,15.29
2017-09-26T03:18:36.181Z,15.34
2017-09-26T03:21:03.583Z,15.28
2017-09-26T03:23:30.978Z,15.48
2017-09-26T03:25:58.374Z,15.42
2017-09-26T03:28:25.766Z,15.28
2017-09-26T03:30:53.166Z,15.13
2017-09-26T03:33:20.558Z,15.16
2017-09-26T03:35:48.937Z,15.23
2017-09-26T03:38:16.330Z,15.33
2017-09-26T03:40:43.740Z,15.43
2017-09-26T03:43:11.130Z,15.31
2017-09-26T03:45:38.530Z,15.35
2017-09-26T03:48:05.927Z,15.42
2017-09-26T03:50:33.321Z,15.13
2017-09-26T03:53:00.721Z,15.15
2017-09-26T03:55:28.107Z,15.32
2017-09-26T03:57:55.510Z,15.64
2017-09-26T04:00:22.906Z,15.46
2017-09-26T04:02:50.311Z,15.43
2017-09-26T04:05:17.703Z,15.49
2017-09-26T04:07:45.102Z,15.40
2017-09-26T04:10:12.491Z,15.34
2017-09-26T04:12:39.894Z,15.11
2017-09-26T04:15:07.296Z,15.04
2017-09-26T04:17:34.727Z,14.90
2017-09-26T04:20:02.128Z,14.87
2017-09-26T04:22:29.526Z,15.00
2017-09-26T04:24:56.923Z,15.03
2017-09-26T04:27:24.323Z,15.08
2017-09-26T04:29:51.716Z,15.17
2017-09-26T04:32:19.116Z,15.15
2017-09-26T04:34:46.510Z,15.23
2017-09-26T04:37:13.911Z,15.20
2017-09-26T04:39:41.308Z,15.27
2017-09-26T04:42:08.704Z,15.18
2017-09-26T04:44:36.106Z,15.37
2017-09-26T04:47:03.594Z,15.19
2017-09-26T04:49:30.990Z,15.14
2017-09-26T04:51:58.411Z,15.02
2017-09-26T04:54:25.808Z,15.02
2017-09-26T04:56:53.198Z,15.02
2017-09-26T04:59:20.609Z,14.82
2017-09-26T05:01:48.003Z,15.02
2017-09-26T05:04:15.403Z,15.13
2017-09-26T05:06:42.801Z,15.31
2017-09-26T05:09:10.207Z,15.34
2017-09-26T05:11:37.600Z,15.30
2017-09-26T05:14:04.998Z,15.15
2017-09-26T05:16:32.402Z,15.21
2017-09-26T05:18:59.819Z,15.20
2017-09-26T05:21:27.270Z,15.35
2017-09-26T05:23:54.679Z,15.16
2017-09-26T05:26:22.071Z,15.04
2017-09-26T05:28:49.470Z,15.15
2017-09-26T05:31:16.867Z,15.30
2017-09-26T05:33:44.262Z,15.20
2017-09-26T05:36:11.659Z,15.07
2017-09-26T05:38:39.131Z,15.06
2017-09-26T05:41:06.523Z,15.20
2017-09-26T05:43:33.914Z,15.10
2017-09-26T05:46:01.423Z,15.00
2017-09-26T05:48:28.880Z,14.98
2017-09-26T05:50:56.283Z,14.92
2017-09-26T05:53:23.673Z,14.83
2017-09-26T05:55:51.070Z,15.02
2017-09-26T05:58:18.488Z,14.93
2017-09-26T06:00:45.886Z,15.17
2017-09-26T06:03:13.288Z,15.11
2017-09-26T06:05:40.690Z,15.04
2017-09-26T06:08:08.091Z,15.03
2017-09-26T06:10:35.491Z,15.01
2017-09-26T06:13:02.890Z,15.01
2017-09-26T06:15:30.292Z,15.00
2017-09-26T06:17:57.750Z,14.81
2017-09-26T06:20:25.151Z,14.98
2017-09-26T06:22:52.548Z,15.01
2017-09-26T06:25:19.954Z,14.91
2017-09-26T06:27:47.351Z,14.94
2017-09-26T06:30:14.754Z,14.97
2017-09-26T06:32:42.151Z,15.12
2017-09-26T06:35:09.539Z,15.12
2017-09-26T06:37:36.942Z,14.93
2017-09-26T06:40:04.339Z,14.94
2017-09-26T06:42:31.752Z,14.91
2017-09-26T06:44:59.142Z,14.96
2017-09-26T06:47:26.541Z,14.91
2017-09-26T06:49:53.938Z,14.91
2017-09-26T06:52:21.334Z,14.83
2017-09-26T06:54:48.730Z,14.97
2017-09-26T06:57:16.127Z,15.04
2017-09-26T06:59:43.523Z,15.16
2017-09-26T07:02:10.932Z,15.24
2017-09-26T07:04:38.334Z,15.38
2017-09-26T07:07:05.750Z,15.48
2017-09-26T07:09:33.142Z,15.42
2017-09-26T07:12:00.551Z,15.41
2017-09-26T07:14:27.942Z,15.46
2017-09-26T07:16:55.343Z,15.36
2017-09-26T07:19:22.734Z,15.30
2017-09-26T07:21:50.134Z,15.36
2017-09-26T07:24:17.526Z,15.35
2017-09-26T07:26:44.930Z,15.47
2017-09-26T07:29:12.350Z,15.41
2017-09-26T07:31:39.767Z,15.36
2017-09-26T07:34:07.150Z,15.38
2017-09-26T07:36:34.552Z,15.54
2017-09-26T07:39:01.951Z,15.49
2017-09-26T07:41:29.343Z,15.44
2017-09-26T07:43:56.742Z,15.47
2017-09-26T07:46:24.135Z,15.56
2017-09-26T07:48:51.538Z,15.47
2017-09-26T07:51:18.930Z,15.53
2017-09-26T07:53:46.412Z,15.59
2017-09-26T07:56:13.800Z,15.63
2017-09-26T07:58:41.198Z,15.65
2017-09-26T08:01:08.734Z,15.74
2017-09-26T08:03:36.231Z,15.90
2017-09-26T08:06:03.750Z,15.93
2017-09-26T08:08:31.274Z,15.88
2017-09-26T08:10:58.714Z,15.87
2017-09-26T08:13:26.114Z,15.92
2017-09-26T08:15:53.526Z,15.98
2017-09-26T08:18:20.930Z,16.00
2017-09-26T08:20:48.322Z,16.22
2017-09-26T08:23:15.723Z,16.42
2017-09-26T08:25:43.118Z,16.51
2017-09-26T08:28:10.515Z,16.21
2017-09-26T08:30:37.914Z,16.09
2017-09-26T08:33:05.310Z,15.92
2017-09-26T08:35:32.710Z,15.89
2017-09-26T08:38:00.109Z,16.04
2017-09-26T08:40:27.515Z,16.32
2017-09-26T08:42:54.930Z,16.40
2017-09-26T08:45:22.390Z,16.28
2017-09-26T08:47:49.839Z,16.33
2017-09-26T08:50:17.234Z,16.43
2017-09-26T08:52:44.669Z,16.23
2017-09-26T08:55:12.050Z,16.04
2017-09-26T08:57:39.462Z,16.03
2017-09-26T09:00:06.862Z,16.04
2017-09-26T09:02:34.258Z,16.23
2017-09-26T09:05:01.661Z,16.24
2017-09-26T09:07:29.059Z,16.39
2017-09-26T09:09:56.451Z,16.55
2017-09-26T09:12:23.917Z,16.55
2017-09-26T09:14:51.308Z,16.51
2017-09-26T09:17:18.703Z,16.53
2017-09-26T09:19:46.102Z,16.62
2017-09-26T09:22:13.496Z,16.65
2017-09-26T09:24:40.903Z,16.69
2017-09-26T09:27:08.296Z,16.59
2017-09-26T09:29:35.694Z,16.64
2017-09-26T09:32:03.091Z,16.64
2017-09-26T09:34:30.599Z,16.64
2017-09-26T09:36:57.990Z,16.72
2017-09-26T09:39:25.403Z,16.70
2017-09-26T09:41:52.795Z,16.86
2017-09-26T09:44:20.190Z,16.90
2017-09-26T09:46:47.596Z,16.87
2017-09-26T09:49:14.995Z,16.98
2017-09-26T09:51:42.400Z,16.87
2017-09-26T09:54:09.795Z,16.88
2017-09-26T09:56:37.191Z,16.87
2017-09-26T09:59:04.583Z,16.88
2017-09-26T10:01:31.984Z,16.77
2017-09-26T10:03:59.378Z,16.73
2017-09-26T10:06:26.784Z,16.60
2017-09-26T10:08:54.179Z,16.50
2017-09-26T10:11:21.633Z,16.46
2017-09-26T10:13:49.027Z,16.39
2017-09-26T10:16:16.418Z,16.38
2017-09-26T10:18:43.818Z,16.54
2017-09-26T10:21:11.221Z,16.56
2017-09-26T10:23:38.620Z,16.56
2017-09-26T10:26:06.014Z,16.48
2017-09-26T10:28:33.425Z,16.31
2017-09-26T10:31:00.814Z,16.12
2017-09-26T10:33:28.231Z,16.24
2017-09-26T10:35:55.626Z,16.09
2017-09-26T10:38:23.042Z,16.19
2017-09-26T10:40:50.438Z,16.39
2017-09-26T10:43:17.842Z,16.20
2017-09-26T10:45:45.242Z,16.04
2017-09-26T10:48:12.643Z,16.19
2017-09-26T10:50:40.031Z,16.22
2017-09-26T10:53:07.434Z,16.35
2017-09-26T10:55:34.838Z,16.52
2017-09-26T10:58:02.286Z,16.66
2017-09-26T11:00:29.750Z,16.83
2017-09-26T11:02:57.149Z,16.96
2017-09-26T11:05:24.564Z,16.97
2017-09-26T11:07:51.972Z,16.77
2017-09-26T11:10:19.354Z,16.71
2017-09-26T11:12:46.758Z,16.61
2017-09-26T11:15:14.156Z,16.62
2017-09-26T11:17:41.558Z,16.51
2017-09-26T11:20:08.959Z,16.54
2017-09-26T11:22:36.367Z,16.53
2017-09-26T11:25:03.767Z,16.60
2017-09-26T11:27:31.159Z,16.70
2017-09-26T11:29:58.625Z,16.78
2017-09-26T11:32:26.038Z,16.86
2017-09-26T11:34:53.435Z,16.86
2017-09-26T11:37:20.853Z,16.92
2017-09-26T11:39:48.338Z,16.93
2017-09-26T11:42:15.742Z,17.03
2017-09-26T11:44:43.142Z,17.04
2017-09-26T11:47:10.538Z,17.19
2017-09-26T11:49:37.942Z,17.19
2017-09-26T11:52:06.346Z,17.14
2017-09-26T11:54:33.746Z,17.17
2017-09-26T11:57:01.155Z,17.33
2017-09-26T11:59:28.554Z,17.37
2017-09-26T12:01:55.950Z,17.49
2017-09-26T12:04:23.354Z,17.56
2017-09-26T12:06:50.795Z,17.50
2017-09-26T12:11:42.595Z,17.74
2017-09-26T12:14:10.690Z,17.83
2017-09-26T12:16:38.082Z,17.92
2017-09-26T12:19:05.478Z,17.98
2017-09-26T12:21:32.967Z,17.77
2017-09-26T12:24:00.366Z,17.66
2017-09-26T12:26:27.767Z,17.43
2017-09-26T12:28:55.155Z,17.53
2017-09-26T12:31:22.557Z,17.49
2017-09-26T12:33:49.946Z,17.26
2017-09-26T12:36:17.346Z,17.23
2017-09-26T12:38:44.742Z,17.26
2017-09-26T12:41:12.146Z,17.44
2017-09-26T12:43:39.538Z,17.52
2017-09-26T12:46:06.938Z,17.52
2017-09-26T12:48:34.445Z,17.39
2017-09-26T12:51:01.847Z,17.43
2017-09-26T12:53:29.239Z,17.46
2017-09-26T12:55:56.643Z,17.62
2017-09-26T12:58:24.169Z,17.64
2017-09-26T13:00:51.566Z,17.50
2017-09-26T13:03:19.018Z,17.60
2017-09-26T13:05:46.466Z,17.58
2017-09-26T13:08:13.866Z,17.65
2017-09-26T13:10:41.267Z,17.64
2017-09-26T13:13:08.666Z,17.70
2017-09-26T13:15:36.070Z,17.71
2017-09-26T13:18:03.463Z,17.56
2017-09-26T13:20:30.862Z,17.52
2017-09-26T13:22:58.254Z,17.66
2017-09-26T13:25:25.654Z,17.64
2017-09-26T13:27:53.062Z,17.59
2017-09-26T13:30:20.532Z,17.56
2017-09-26T13:32:47.955Z,17.61
2017-09-26T13:35:15.350Z,17.50
2017-09-26T13:37:42.752Z,17.72
2017-09-26T13:40:10.140Z,17.95
2017-09-26T13:42:37.542Z,18.10
2017-09-26T13:45:04.934Z,18.14
2017-09-26T13:47:32.356Z,18.13
2017-09-26T13:49:59.754Z,18.04
2017-09-26T13:52:27.151Z,17.97
2017-09-26T13:54:54.542Z,17.94
2017-09-26T13:57:21.943Z,18.00
2017-09-26T13:59:49.334Z,18.05
2017-09-26T14:02:16.745Z,18.15
2017-09-26T14:04:44.146Z,18.24
2017-09-26T14:07:11.547Z,18.29
2017-09-26T14:09:39.040Z,18.29
2017-09-26T14:12:06.443Z,18.46
2017-09-26T14:14:33.939Z,18.59
2017-09-26T14:17:01.331Z,18.69
2017-09-26T14:19:28.768Z,18.64
2017-09-26T14:21:56.154Z,18.51
2017-09-26T14:24:23.556Z,18.57
2017-09-26T14:26:50.954Z,18.73
2017-09-26T14:29:18.373Z,18.61
2017-09-26T14:31:45.770Z,18.72
2017-09-26T14:34:13.203Z,18.64
2017-09-26T14:36:40.605Z,18.63
2017-09-26T14:39:08.005Z,18.46
2017-09-26T14:41:35.398Z,18.37
2017-09-26T14:44:02.794Z,18.51
2017-09-26T14:46:30.190Z,18.31
2017-09-26T14:48:57.597Z,18.21
2017-09-26T14:51:24.987Z,18.12
2017-09-26T14:53:52.390Z,18.04
2017-09-26T14:56:19.782Z,18.12
2017-09-26T14:58:47.190Z,18.19
2017-09-26T15:01:14.586Z,18.11
2017-09-26T15:03:41.986Z,17.91
2017-09-26T15:06:09.383Z,17.95
2017-09-26T15:08:36.785Z,18.09
2017-09-26T15:11:04.178Z,18.17
2017-09-26T15:13:31.688Z,18.23
2017-09-26T15:15:59.082Z,18.47
2017-09-26T15:18:26.482Z,18.57
2017-09-26T15:20:53.920Z,18.66
2017-09-26T15:23:21.413Z,18.74
2017-09-26T15:25:48.872Z,18.64
2017-09-26T15:28:16.269Z,18.46
2017-09-26T15:30:43.673Z,18.52
2017-09-26T15:33:11.147Z,18.35
2017-09-26T15:35:38.535Z,18.32
2017-09-26T15:38:05.934Z,18.58
2017-09-26T15:40:33.402Z,18.62
2017-09-26T15:43:00.799Z,18.67
2017-09-26T15:45:28.214Z,18.79
2017-09-26T15:47:55.607Z,18.85
2017-09-26T15:50:23.014Z,18.76
2017-09-26T15:52:50.496Z,18.64
2017-09-26T15:55:17.885Z,18.60
2017-09-26T15:57:45.282Z,18.48
2017-09-26T16:00:12.685Z,18.24
2017-09-26T16:02:40.094Z,18.38
2017-09-26T16:05:07.495Z,18.23
2017-09-26T16:07:34.898Z,18.56
2017-09-26T16:10:02.299Z,18.44
2017-09-26T16:12:29.717Z,18.41
2017-09-26T16:14:57.099Z,18.35
2017-09-26T16:17:24.522Z,18.14
2017-09-26T16:19:52.006Z,18.03
2017-09-26T16:22:19.402Z,18.10
2017-09-26T16:24:46.809Z,18.14
2017-09-26T16:27:14.203Z,18.28
2017-09-26T16:29:41.610Z,18.20
2017-09-26T16:32:09.007Z,18.32
2017-09-26T16:34:36.407Z,18.37
2017-09-26T16:37:03.807Z,18.33
2017-09-26T16:39:31.199Z,18.32
2017-09-26T16:41:58.603Z,18.21
2017-09-26T16:44:26.010Z,18.26
2017-09-26T16:46:53.522Z,18.02
2017-09-26T16:49:20.987Z,17.99
2017-09-26T16:51:48.383Z,18.05
2017-09-26T16:54:15.786Z,17.95
2017-09-26T16:56:43.194Z,17.82
2017-09-26T16:59:10.624Z,17.85
2017-09-26T17:01:38.007Z,17.90
2017-09-26T17:04:05.398Z,17.94
2017-09-26T17:06:32.806Z,18.16
2017-09-26T17:09:00.222Z,18.22
2017-09-26T17:11:27.620Z,17.86
2017-09-26T17:13:55.045Z,17.86
2017-09-26T17:16:22.423Z,17.85
2017-09-26T17:18:49.822Z,17.87
2017-09-26T17:21:17.298Z,17.95
2017-09-26T17:23:44.702Z,17.83
2017-09-26T17:26:12.110Z,17.81
2017-09-26T17:28:39.509Z,17.70
2017-09-26T17:31:06.906Z,17.83
2017-09-26T17:33:34.302Z,17.99
2017-09-26T17:36:01.694Z,17.90
2017-09-26T17:38:29.090Z,17.83
2017-09-26T17:40:56.558Z,17.70
2017-09-26T17:43:23.968Z,17.49
2017-09-26T17:45:51.368Z,17.51
2017-09-26T17:48:18.766Z,17.11
2017-09-26T17:50:46.163Z,16.96
2017-09-26T17:53:13.563Z,16.72
2017-09-26T17:55:40.950Z,16.61
2017-09-26T17:58:08.380Z,16.56
2017-09-26T18:00:35.808Z,16.70
2017-09-26T18:03:03.198Z,16.82
2017-09-26T18:05:30.707Z,16.85
2017-09-26T18:07:58.115Z,16.66
2017-09-26T18:10:25.514Z,16.51
2017-09-26T18:12:52.902Z,16.26
2017-09-26T18:15:20.303Z,16.31
2017-09-26T18:17:47.787Z,16.23
2017-09-26T18:20:15.190Z,16.23
2017-09-26T18:22:42.583Z,16.18
2017-09-26T18:25:09.974Z,16.07
2017-09-26T18:27:37.385Z,16.19
2017-09-26T18:30:04.861Z,16.17
2017-09-26T18:32:32.271Z,16.05
2017-09-26T18:34:59.674Z,16.00
2017-09-26T18:37:27.075Z,15.91
2017-09-26T18:39:54.474Z,16.11
2017-09-26T18:42:21.870Z,16.16
2017-09-26T18:44:49.270Z,16.19
2017-09-26T18:47:16.669Z,15.99
2017-09-26T18:49:44.063Z,16.01
2017-09-26T18:52:11.567Z,16.08
2017-09-26T18:54:38.967Z,16.15
2017-09-26T18:57:06.426Z,16.16
2017-09-26T18:59:33.835Z,16.21
2017-09-26T19:02:01.396Z,16.22
2017-09-26T19:04:28.782Z,16.25
2017-09-26T19:06:56.182Z,16.06
2017-09-26T19:09:23.578Z,15.85
2017-09-26T19:11:50.986Z,15.89
2017-09-26T19:14:18.388Z,15.87
2017-09-26T19:16:45.870Z,15.76
2017-09-26T19:19:13.258Z,15.72
2017-09-26T19:21:40.760Z,15.60
2017-09-26T19:24:08.178Z,15.57
2017-09-26T19:26:35.571Z,15.77
2017-09-26T19:29:02.970Z,15.67
2017-09-26T19:31:30.626Z,15.63
2017-09-26T19:33:58.192Z,15.62
2017-09-26T19:36:25.650Z,15.60
2017-09-26T19:38:53.046Z,15.81
2017-09-26T19:41:20.454Z,15.86
2017-09-26T19:43:47.848Z,16.11
2017-09-26T19:46:15.251Z,16.18
2017-09-26T19:48:42.650Z,16.12
2017-09-26T19:51:10.055Z,16.18
2017-09-26T19:53:37.562Z,16.46
2017-09-26T19:56:04.966Z,16.44
2017-09-26T19:58:32.371Z,16.49
2017-09-26T20:00:59.764Z,16.72
2017-09-26T20:03:27.262Z,16.57
2017-09-26T20:05:54.660Z,16.36
2017-09-26T20:08:22.061Z,16.27
2017-09-26T20:10:49.460Z,16.20
2017-09-26T20:13:16.858Z,16.04
2017-09-26T20:15:44.261Z,16.07
2017-09-26T20:18:11.662Z,16.07
2017-09-26T20:20:39.054Z,16.14
2017-09-26T20:23:06.458Z,15.80
2017-09-26T20:25:33.880Z,15.61
2017-09-26T20:28:01.280Z,15.50
2017-09-26T20:30:28.687Z,15.43
2017-09-26T20:32:56.098Z,15.54
2017-09-26T20:35:23.590Z,15.45
2017-09-26T20:37:51.052Z,15.44
2017-09-26T20:40:18.439Z,15.39
2017-09-26T20:42:45.842Z,15.52
2017-09-26T20:45:13.239Z,15.37
2017-09-26T20:47:40.638Z,15.41
2017-09-26T20:50:08.031Z,15.31
2017-09-26T20:52:35.430Z,15.32
2017-09-26T20:55:02.826Z,15.41
2017-09-26T20:57:30.222Z,15.49
2017-09-26T20:59:57.624Z,15.48
2017-09-26T21:02:25.026Z,15.34
2017-09-26T21:04:52.454Z,15.31
2017-09-26T21:07:19.850Z,15.31
2017-09-26T21:09:47.249Z,15.32
2017-09-26T21:12:14.646Z,15.33
2017-09-26T21:14:42.042Z,15.42
2017-09-26T21:17:09.439Z,15.39
2017-09-26T21:19:36.834Z,15.47
2017-09-26T21:22:04.334Z,15.42
2017-09-26T21:24:31.726Z,15.36
2017-09-26T21:26:59.122Z,15.39
2017-09-26T21:29:26.516Z,15.30
2017-09-26T21:31:53.910Z,15.43
2017-09-26T21:34:21.324Z,15.45
2017-09-26T21:36:48.710Z,15.38
2017-09-26T21:39:16.113Z,15.24
2017-09-26T21:41:43.510Z,15.22
2017-09-26T21:44:10.920Z,15.20
2017-09-26T21:49:12.115Z,15.14
2017-09-26T21:51:39.510Z,15.25
2017-09-26T21:54:06.917Z,15.15
2017-09-26T21:56:34.366Z,15.23
2017-09-26T21:59:01.763Z,15.37
2017-09-26T22:01:29.171Z,15.29
2017-09-26T22:03:56.584Z,15.24
2017-09-26T22:06:24.087Z,15.18
2017-09-26T22:08:51.478Z,15.14
2017-09-26T22:11:18.874Z,15.22
2017-09-26T22:13:46.275Z,15.28
2017-09-26T22:16:13.679Z,15.32
2017-09-26T22:18:41.103Z,15.32
2017-09-26T22:21:08.510Z,15.33
2017-09-26T22:23:35.909Z,15.32
2017-09-26T22:26:03.310Z,15.34
2017-09-26T22:28:30.703Z,15.42
2017-09-26T22:30:58.106Z,15.33
2017-09-26T22:33:25.506Z,15.34
2017-09-26T22:35:52.907Z,15.31
2017-09-26T22:38:20.414Z,15.28
2017-09-26T22:40:47.827Z,15.34
2017-09-26T22:43:15.224Z,15.41
2017-09-26T22:45:42.626Z,15.59
2017-09-26T22:48:10.024Z,15.46
2017-09-26T22:50:37.489Z,15.47
2017-09-26T22:53:13.447Z,15.41
2017-09-26T22:55:40.853Z,15.61
2017-09-26T22:58:08.254Z,15.59
2017-09-26T23:00:35.647Z,15.56
2017-09-26T23:03:03.045Z,15.48
2017-09-26T23:05:30.435Z,15.63
2017-09-26T23:07:57.848Z,15.57
2017-09-26T23:10:25.240Z,15.74
2017-09-26T23:12:52.642Z,15.67
2017-09-26T23:15:20.038Z,15.52
2017-09-26T23:17:47.450Z,15.47
2017-09-26T23:20:14.842Z,15.18
2017-09-26T23:28:27.931Z,14.72
2017-09-26T23:30:55.340Z,14.70
2017-09-26T23:33:22.726Z,14.72
2017-09-26T23:35:50.123Z,14.86
2017-09-26T23:38:17.521Z,14.79
2017-09-26T23:40:44.919Z,14.96
2017-09-26T23:43:12.318Z,15.03
2017-09-26T23:45:39.840Z,15.12
2017-09-26T23:48:07.247Z,15.28
2017-09-26T23:50:34.695Z,15.18
2017-09-26T23:53:02.107Z,15.28
2017-09-26T23:57:56.730Z,15.35
